This is the latest recevied weather packets stored in our database for station/object W1TG-2. If no packets are shown the sender has not sent any weather packets the latest 10 day(s).
| Time | Temp. | Humidity | Pressure | Rain* | Wind** | Luminosity | Snow |
|---|---|---|---|---|---|---|---|
| 1787686204 | 26.11° C | 59% | 1011.6 hPa | 0 mm | - | - | - |
| 1787685843 | 26.67° C | 56% | 1011.6 hPa | 0 mm | - | - | - |
| 1787685483 | 27.22° C | 57% | 1011.6 hPa | 0 mm | - | - | - |
| 1787685124 | 26.67° C | 59% | 1011.6 hPa | 0 mm | - | - | - |
| 1787684763 | 25.56° C | 61% | 1011.7 hPa | 0 mm | - | - | - |
| 1787684403 | 25.56° C | 62% | 1011.8 hPa | 0 mm | - | - | - |
| 1787684044 | 25.56° C | 62% | 1011.9 hPa | 0 mm | - | - | - |
| 1787683683 | 25.56° C | 60% | 1011.9 hPa | 0 mm | - | - | - |
| 1787683323 | 26.11° C | 59% | 1011.9 hPa | 0 mm | - | - | - |
| 1787682964 | 26.11° C | 58% | 1011.8 hPa | 0 mm | - | - | - |
| 1787682604 | 26.11° C | 61% | 1011.8 hPa | 0 mm | - | - | - |
| 1787682243 | 25.56° C | 63% | 1011.8 hPa | 0 mm | - | - | - |
| 1787681884 | 25.56° C | 61% | 1011.7 hPa | 0 mm | - | - | - |
| 1787681524 | 25.56° C | 60% | 1011.8 hPa | 0 mm | - | - | - |
| 1787681163 | 25.56° C | 62% | 1011.8 hPa | 0 mm | - | - | - |
| 1787680804 | 26.11° C | 61% | 1011.8 hPa | 0 mm | - | - | - |
| 1787680444 | 25.56° C | 63% | 1011.8 hPa | 0 mm | - | - | - |
| 1787680083 | 25.56° C | 61% | 1011.8 hPa | 0 mm | - | - | - |
| 1787679723 | 25° C | 63% | 1011.8 hPa | 0 mm | - | - | - |
| 1787679364 | 25.56° C | 62% | 1012 hPa | 0 mm | - | - | - |
| 1787679003 | 25.56° C | 63% | 1012 hPa | 0 mm | - | - | - |
| 1787678643 | 25° C | 64% | 1011.9 hPa | 0 mm | - | - | - |
| 1787678284 | 25° C | 63% | 1011.9 hPa | 0 mm | - | - | - |
| 1787677924 | 25° C | 62% | 1011.9 hPa | 0 mm | - | - | - |
| 1787677563 | 25° C | 63% | 1011.9 hPa | 0 mm | - | - | - |
* Rain latest hour (hover to see other rain measurements)
** Current wind speed in m/s (hover to see current wind gust speed)